Last 30 Days

AM-Scott Top 8120'

Daily Data | America/Los_Angeles
as of 2/24/24 12:39 AM PST
Date Daily Max Temp (°F) Time of Max Temp Daily Min Temp (°F) Time of Min Temp Wind Spd (mph) Wind Gust (mph) Wind Gst Dir (°) Wind Gst Time Wet Bulb (°F) WetB Hrs <28F (hrs) Max RH (%) Min RH (%) MinBV Day (V)
2/23/24 38.0 1553 26.8 0653 4.2 22.9 SSW | 192 0645 28.0 10.2 86 41 11.2
2/22/24 34.4 1520 21.9 0338 4.1 14.5 WNW | 286 1420 25.0 20.1 87 46 11.1
2/21/24 26.9 1601 22.8 1955 10.5 27.9 NW | 321 1445 23.9 24.0 97 75 11.2
2/20/24 30.4 1245 23.2 0737 16.7 43.9 NW | 315 0928 25.0 23.7 98 81 11.1
2/19/24 30.9 0006 25.2 0925 19.7 51.6 WNW | 300 0519 27.3 19.4 98 82 11.2
2/18/24 35.9 1436 25.1 0756 20.8 47.9 NW | 320 0518 28.1 12.4 98 34 11.1
2/17/24 34.7 0850 26.9 2331 13.8 52.9 NW | 316 2225 28.3 9.8 98 39 11.2
2/16/24 40.4 1338 25.8 0020 4.4 20.5 NNW | 330 0124 28.8 8.8 93 48 11.2
2/15/24 27.0 1603 23.4 0302 13.0 45.1 NW | 320 0621 24.1 24.0 97 73 11.2
2/14/24 27.5 1759 22.9 0526 22.6 58.2 WNW | 302 2118 24.7 24.0 98 67 11.1
2/13/24 34.9 1111 25.4 1841 15.6 32.1 NNW | 331 2331 24.9 23.5 96 40 11.1
2/12/24 43.9 1135 28.8 2322 5.1 20.4 NW | 320 1853 26.9 15.7 90 13 11.2
2/11/24 46.7 1516 29.3 0001 3.8 14.0 NNE | 14 0314 27.8 13.8 75 6 11.1
2/10/24 29.6 2350 14.2 0318 7.8 24.4 SSE | 151 1033 17.7 24.0 95 7 11.1
2/9/24 25.7 1242 15.1 2357 6.1 22.4 ESE | 115 2344 19.2 24.0 97 92 11.1
2/8/24 26.4 1053 17.5 2012 3.2 17.8 NW | 323 1323 20.2 18.0 97 95 11.1
2/7/24 22.2 1429 18.9 1027 8.1 36.0 NNW | 328 0946 20.5 24.0 97 95 11.1
2/6/24 31.4 1424 22.1 2358 2.2 8.5 NNE | 13 1512 24.5 21.7 98 95 11.1
2/5/24 27.4 0111 23.7 1804 12.3 52.5 WNW | 286 0052 24.9 24.0 98 97 11.2
2/4/24 30.7 1308 20.1 0001 12.4 47.7 WNW | 293 2035 25.4 15.6 99 96 11.1
2/3/24 24.3 1307 14.7 0645 6.9 26.8 NNW | 332 0023 18.2 24.0 97 94 11.1
2/2/24 22.5 1146 16.1 2355 14.2 30.1 NNW | 341 1833 18.7 12.4 96 94 11.1
2/1/24 30.9 0210 21.1 2350 12.5 31.7 NW | 320 1249 25.1 19.8 98 91 11.2
1/31/24 39.8 0001 28.9 1715 18.6 45.1 WNW | 286 0640 30.4 0.0 98 42 11.1
1/30/24 43.9 1607 37.6 2213 15.1 34.2 NW | 304 2348 33.5 0.0 84 35 11.2
1/29/24 51.4 1113 41.1 2325 6.0 18.7 NW | 325 2350 38.6 0.0 73 38 11.2
1/28/24 56.9 1347 41.9 0009 5.4 17.0 WSW | 255 0217 39.1 0.0 69 39 11.2
1/27/24 49.7 1134 39.9 0234 5.1 25.2 NW | 322 1759 38.8 0.0 87 50 11.2
1/26/24 41.7 2345 24.9 0109 5.1 18.3 N | 8 1247 32.1 8.9 99 42 11.2
1/25/24 34.1 1538 22.4 0732 3.0 14.3 W | 279 0109 26.3 18.2 99 75 11.2
Max 56.9 - 41.9 - 22.6 58.2 - - 39.1 24.0 99 97 11.2
Avg - - - - 9.9 30.8 - - 26.5 - - - -
Min 22.2 - 14.2 - 2.2 8.5 - - 17.7 0.0 69 6 11.1